KPUC

Carbon County Regional / Buck Davis Field Airport

Price, Utah, USA
METAR KPUC 231053Z AUTO 03003KT 10SM CLR M10/M12 A3027 RMK AO2 SLP312 T11001122
Observed Flight Rules
Jan-23 @ 10:53 UTC (an hour ago) Visual Flight Rules
Wind Visibility Clouds
30° at 3 knots 10 miles
  • Clear skies
Temperatures Readings
Current -10°C / 14°F
Dewpoint -12°C / 10°F
Humidity 85%
Altimeter 30.27" Hg
Pressure 1031.2 hPa
Elevation 2091
METAR KPUC 231053Z AUTO 03003KT 10SM CLR M10/M12 A3027 RMK AO2 SLP312 T11001122
Observed Flight Rules
Jan-23 @ 10:53 UTC
(an hour ago)
VFR
Wind Visibility
30° at 3 knots 10 miles
Clouds
  • Clear skies
Temperature Dewpoint
-10°C / 14°F -12°C / 10°F
Humidity Altimeter Pressure
85% 30.27" Hg 1031.2 hPa